Silvianopolis, Brazil
Current Conditions -  °F | °C
As of 6:40 PM on Sunday 21 Dec 2014 (Local Time) from SBGW Reporting Station
Thunderstorm Thunderstorm  
Wind Chill: 82°   Ceiling: Unl
Heat Index: 86°   Visibility: 5mi
Dew Point: 70°   Wind: 8mph
Humidity: 66%   Direction: 310°NW
Pressure: 29.83"   Gusts: 31mph
Location:  22.03°S, 45.83°W
Report Text: SBGW 212040Z 31007G27KT 270V330 8000 TS VCSH SCT030 FEW033CB BKN N080 28/21 Q1010
Loading
Personal Weather Stations






























Interactive Weather Map New forecast layout! Learn more

10-Day Weather Forecast

Advertisements
Track Severe Weather on mobile